createdAt,value
2023-04-15T00:00:34.853Z,90.85
2023-04-15T00:03:38.638Z,106.15
2023-04-15T00:06:42.812Z,82.13
2023-04-15T00:09:47.100Z,85.93
2023-04-15T00:12:50.104Z,88.57
2023-04-15T00:15:53.577Z,89.07
2023-04-15T00:18:57.504Z,85.97
2023-04-15T00:22:01.783Z,93.55
2023-04-15T00:25:06.015Z,74.25
2023-04-15T00:28:10.004Z,81.10
2023-04-15T00:31:13.748Z,69.88
2023-04-15T00:34:17.640Z,61.45
2023-04-15T00:37:20.743Z,65.22
2023-04-15T00:40:25.620Z,65.43
2023-04-15T00:43:32.063Z,57.95
2023-04-15T00:46:38.840Z,65.43
2023-04-15T00:49:42.023Z,70.43
2023-04-15T00:52:45.677Z,72.47
2023-04-15T00:55:49.343Z,69.65
2023-04-15T00:58:53.259Z,54.17
2023-04-15T01:01:57.141Z,55.47
2023-04-15T01:05:01.551Z,55.58
2023-04-15T01:08:06.491Z,58.10
2023-04-15T01:11:13.684Z,64.25
2023-04-15T01:14:18.035Z,56.60
2023-04-15T01:17:22.155Z,53.70
2023-04-15T01:20:25.495Z,62.05
2023-04-15T01:23:29.999Z,51.80
2023-04-15T01:26:33.892Z,56.00
2023-04-15T01:29:39.725Z,59.90
2023-04-15T01:32:43.204Z,52.55
2023-04-15T01:35:48.271Z,61.75
2023-04-15T01:38:52.548Z,57.55
2023-04-15T01:41:59.389Z,66.07
2023-04-15T01:45:04.425Z,50.47
2023-04-15T01:48:08.246Z,56.60
2023-04-15T01:51:14.007Z,58.10
2023-04-15T01:54:18.292Z,59.70
2023-04-15T01:57:22.031Z,59.95
2023-04-15T02:00:28.471Z,55.40
2023-04-15T02:03:33.065Z,56.40
2023-04-15T02:06:37.481Z,49.67
2023-04-15T02:09:41.223Z,46.33
2023-04-15T02:12:45.489Z,45.42
2023-04-15T02:15:50.661Z,39.35
2023-04-15T02:18:55.714Z,37.85
2023-04-15T02:22:00.823Z,44.17
2023-04-15T02:25:04.246Z,51.90
2023-04-15T02:28:09.000Z,43.85
2023-04-15T02:31:13.135Z,39.08
2023-04-15T02:34:17.248Z,38.33
2023-04-15T02:37:21.556Z,39.40
2023-04-15T02:40:25.124Z,39.35
2023-04-15T02:43:28.631Z,40.03
2023-04-15T02:46:33.051Z,47.30
2023-04-15T02:49:36.528Z,41.55
2023-04-15T02:52:44.268Z,41.67
2023-04-15T02:55:47.533Z,37.00
2023-04-15T02:58:56.890Z,42.47
2023-04-15T03:02:01.763Z,45.50
2023-04-15T03:05:07.053Z,47.47
2023-04-15T03:08:10.556Z,38.17
2023-04-15T03:11:17.347Z,40.38
2023-04-15T03:14:21.991Z,46.58
2023-04-15T03:17:25.604Z,32.20
2023-04-15T03:20:29.259Z,26.05
2023-04-15T03:23:33.186Z,35.03
2023-04-15T03:26:38.254Z,38.60
2023-04-15T03:29:48.805Z,37.45
2023-04-15T03:32:53.861Z,25.73
2023-04-15T03:35:58.249Z,33.65
2023-04-15T03:39:03.194Z,25.83
2023-04-15T03:42:07.846Z,21.52
2023-04-15T03:45:12.106Z,31.00
2023-04-15T03:48:18.056Z,21.88
2023-04-15T03:51:22.342Z,22.63
2023-04-15T03:54:25.615Z,25.58
2023-04-15T03:57:29.452Z,21.25
2023-04-15T04:00:32.618Z,10.88
2023-04-15T04:03:37.977Z,13.90
2023-04-15T04:06:41.705Z,9.77
2023-04-15T04:09:47.287Z,8.10
2023-04-15T04:12:51.122Z,10.60
2023-04-15T04:15:54.825Z,6.88
2023-04-15T04:18:58.922Z,11.30
2023-04-15T04:22:03.309Z,8.43
2023-04-15T04:25:09.218Z,6.93
2023-04-15T04:28:13.754Z,7.35
2023-04-15T04:31:17.776Z,5.70
2023-04-15T04:34:21.863Z,3.05
2023-04-15T04:37:26.536Z,5.75
2023-04-15T04:40:30.032Z,7.72
2023-04-15T04:43:33.176Z,11.90
2023-04-15T04:46:37.409Z,7.32
2023-04-15T04:49:41.891Z,11.13
2023-04-15T04:52:45.996Z,12.10
2023-04-15T04:55:49.947Z,10.27
2023-04-15T04:58:53.858Z,8.07
2023-04-15T05:01:57.758Z,10.50
2023-04-15T05:05:02.745Z,12.32
2023-04-15T05:08:06.646Z,7.47
2023-04-15T05:11:09.999Z,11.35
2023-04-15T05:14:13.116Z,16.92
2023-04-15T05:17:17.029Z,12.88
2023-04-15T05:20:20.602Z,11.82
2023-04-15T05:23:24.410Z,13.02
2023-04-15T05:26:28.067Z,11.98
2023-04-15T05:29:31.916Z,8.00
2023-04-15T05:32:35.692Z,14.07
2023-04-15T05:35:39.600Z,9.70
2023-04-15T05:38:43.145Z,10.63
2023-04-15T05:41:47.806Z,14.80
2023-04-15T05:44:52.302Z,12.32
2023-04-15T05:47:56.853Z,9.65
2023-04-15T05:51:01.282Z,14.82
2023-04-15T05:54:04.915Z,13.55
2023-04-15T05:57:08.809Z,2.20
2023-04-15T06:00:14.120Z,4.63
2023-04-15T06:03:17.974Z,10.82
2023-04-15T06:06:22.253Z,7.50
2023-04-15T06:09:26.255Z,17.65
2023-04-15T06:12:30.528Z,11.20
2023-04-15T06:15:34.016Z,4.80
2023-04-15T06:18:37.565Z,3.00
2023-04-15T06:21:42.010Z,1.27
2023-04-15T06:24:46.525Z,6.13
2023-04-15T06:27:50.354Z,1.75
2023-04-15T06:30:54.826Z,2.25
2023-04-15T06:33:58.528Z,0.98
2023-04-15T06:37:03.004Z,4.90
2023-04-15T06:40:10.688Z,2.95
2023-04-15T06:43:14.690Z,2.35
2023-04-15T06:46:18.524Z,12.50
2023-04-15T06:49:23.059Z,2.33
2023-04-15T06:52:26.764Z,2.75
2023-04-15T06:55:32.178Z,8.98
2023-04-15T06:58:38.632Z,4.25
2023-04-15T07:01:43.038Z,2.45
2023-04-15T07:04:46.498Z,3.90
2023-04-15T07:07:51.196Z,3.78
2023-04-15T07:10:55.597Z,9.75
2023-04-15T07:13:59.932Z,3.40
2023-04-15T07:17:03.320Z,5.38
2023-04-15T07:20:07.348Z,4.68
2023-04-15T07:23:11.407Z,4.28
2023-04-15T07:26:14.803Z,9.32
2023-04-15T07:29:18.717Z,6.50
2023-04-15T07:32:22.661Z,3.92
2023-04-15T07:35:27.204Z,4.90
2023-04-15T07:38:30.930Z,2.90
2023-04-15T07:41:34.976Z,2.60
2023-04-15T07:44:38.137Z,2.25
2023-04-15T07:47:42.718Z,1.38
2023-04-15T07:50:47.006Z,2.85
2023-04-15T07:53:51.265Z,4.18
2023-04-15T07:56:55.653Z,2.85
2023-04-15T07:59:58.949Z,3.42
2023-04-15T08:03:02.804Z,7.93
2023-04-15T08:06:07.299Z,6.10
2023-04-15T08:09:10.565Z,3.55
2023-04-15T08:12:14.133Z,4.15
2023-04-15T08:15:18.673Z,4.13
2023-04-15T08:18:22.470Z,1.65
2023-04-15T08:21:26.870Z,2.75
2023-04-15T08:24:32.119Z,9.63
2023-04-15T08:27:35.426Z,4.70
2023-04-15T08:30:39.163Z,2.92
2023-04-15T08:33:43.449Z,2.50
2023-04-15T08:36:47.036Z,2.45
2023-04-15T08:39:51.178Z,2.63
2023-04-15T08:42:58.348Z,5.13
2023-04-15T08:46:03.506Z,4.70
2023-04-15T08:49:06.568Z,4.68
2023-04-15T08:52:11.597Z,5.30
2023-04-15T08:55:16.995Z,5.75
2023-04-15T08:58:21.583Z,10.70
2023-04-15T09:01:25.579Z,4.22
2023-04-15T09:04:30.085Z,6.50
2023-04-15T09:07:36.568Z,5.10
2023-04-15T09:10:41.228Z,6.03
2023-04-15T09:13:45.174Z,12.23
2023-04-15T09:17:11.703Z,9.50
2023-04-15T09:20:17.557Z,7.80
2023-04-15T09:23:21.235Z,4.00
2023-04-15T09:26:40.707Z,3.95
2023-04-15T09:29:44.928Z,2.60
2023-04-15T09:32:57.185Z,4.60
2023-04-15T09:36:06.025Z,7.60
2023-04-15T09:39:10.080Z,4.90
2023-04-15T09:42:14.050Z,3.70
2023-04-15T09:45:17.401Z,3.67
2023-04-15T09:48:24.545Z,10.80
2023-04-15T09:51:36.578Z,15.88
2023-04-15T09:54:40.810Z,5.18
2023-04-15T09:57:48.236Z,8.20
2023-04-15T10:00:54.226Z,4.15
2023-04-15T10:04:04.773Z,3.92
2023-04-15T10:07:11.098Z,6.55
2023-04-15T10:10:16.113Z,8.40
2023-04-15T10:13:23.188Z,9.57
2023-04-15T10:16:32.095Z,3.95
2023-04-15T10:19:39.103Z,10.73
2023-04-15T10:22:42.982Z,13.93
2023-04-15T10:25:48.290Z,17.25
2023-04-15T10:28:52.914Z,9.32
2023-04-15T10:32:01.028Z,7.85
2023-04-15T10:35:06.657Z,10.98
2023-04-15T10:38:35.834Z,8.27
2023-04-15T10:41:39.503Z,12.07
2023-04-15T10:44:44.961Z,4.05
2023-04-15T10:47:55.056Z,8.25
2023-04-15T10:51:01.791Z,2.10
2023-04-15T10:54:29.709Z,10.98
2023-04-15T10:57:39.560Z,5.60
2023-04-15T11:00:52.876Z,11.80
2023-04-15T11:03:57.359Z,3.58
2023-04-15T11:07:09.337Z,2.88
2023-04-15T11:10:18.752Z,4.60
2023-04-15T11:13:25.999Z,4.60
2023-04-15T11:16:30.129Z,1.95
2023-04-15T11:19:40.045Z,4.22
2023-04-15T11:23:14.208Z,3.70
2023-04-15T11:26:18.249Z,1.38
2023-04-15T11:29:22.361Z,1.90
2023-04-15T11:32:25.514Z,3.50
2023-04-15T11:35:30.068Z,1.52
2023-04-15T11:38:35.335Z,2.60
2023-04-15T11:41:39.291Z,2.47
2023-04-15T11:44:42.966Z,3.38
2023-04-15T11:47:46.527Z,3.80
2023-04-15T11:51:04.482Z,7.75
2023-04-15T11:54:08.174Z,9.38
2023-04-15T11:57:11.096Z,9.30
2023-04-15T12:00:15.093Z,9.02
2023-04-15T12:03:21.043Z,13.25
2023-04-15T12:06:26.427Z,5.45
2023-04-15T12:09:30.927Z,8.95
2023-04-15T12:12:36.469Z,11.52
2023-04-15T12:15:40.213Z,7.15
2023-04-15T12:18:52.904Z,10.48
2023-04-15T12:22:05.923Z,5.60
2023-04-15T12:25:09.748Z,9.05
2023-04-15T12:28:13.563Z,7.55
2023-04-15T12:31:17.948Z,4.13
2023-04-15T12:34:35.426Z,6.30
2023-04-15T12:37:39.946Z,3.80
2023-04-15T12:40:43.624Z,3.60
2023-04-15T12:43:48.107Z,6.55
2023-04-15T12:46:54.423Z,4.40
2023-04-15T12:49:57.487Z,4.80
2023-04-15T12:53:00.408Z,3.60
2023-04-15T12:56:04.034Z,8.30
2023-04-15T12:59:07.098Z,6.15
2023-04-15T13:02:11.413Z,7.50
2023-04-15T13:05:16.318Z,5.70
2023-04-15T13:08:21.944Z,4.57
2023-04-15T13:11:26.063Z,3.72
2023-04-15T13:14:29.640Z,2.67
2023-04-15T13:17:32.601Z,3.95
2023-04-15T13:20:37.005Z,2.58
2023-04-15T13:23:42.443Z,6.63
2023-04-15T13:26:46.403Z,9.23
2023-04-15T13:29:50.877Z,3.75
2023-04-15T13:32:55.009Z,4.88
2023-04-15T13:35:58.739Z,2.60
2023-04-15T13:39:02.501Z,5.43
2023-04-15T13:42:06.232Z,2.13
2023-04-15T13:45:10.370Z,4.05
2023-04-15T13:48:14.229Z,5.63
2023-04-15T13:51:17.331Z,3.38
2023-04-15T13:54:20.719Z,6.28
2023-04-15T13:57:24.929Z,2.58
2023-04-15T14:00:28.058Z,4.90
2023-04-15T14:03:32.305Z,4.35
2023-04-15T14:06:36.182Z,5.97
2023-04-15T14:09:43.250Z,4.10
2023-04-15T14:12:47.208Z,4.88
2023-04-15T14:15:51.433Z,3.42
2023-04-15T14:18:54.907Z,10.18
2023-04-15T14:21:59.114Z,1.65
2023-04-15T14:25:02.531Z,3.20
2023-04-15T14:28:06.860Z,2.97
2023-04-15T14:31:10.085Z,2.38
2023-04-15T14:34:15.187Z,2.10
2023-04-15T14:37:20.036Z,4.80
2023-04-15T14:40:24.458Z,1.30
2023-04-15T14:43:28.850Z,1.80
2023-04-15T14:46:32.587Z,4.22
2023-04-15T14:49:36.114Z,1.95
2023-04-15T14:52:41.157Z,1.48
2023-04-15T14:55:47.296Z,4.72
2023-04-15T14:58:54.082Z,3.35
2023-04-15T15:01:58.249Z,3.72
2023-04-15T15:05:03.400Z,2.20
2023-04-15T15:08:09.878Z,1.65
2023-04-15T15:11:14.708Z,2.35
2023-04-15T15:14:19.223Z,5.25
2023-04-15T15:17:24.005Z,2.67
2023-04-15T15:20:28.910Z,3.70
2023-04-15T15:23:33.245Z,5.75
2023-04-15T15:26:37.020Z,3.72
2023-04-15T15:29:41.785Z,3.65
2023-04-15T15:32:46.423Z,7.10
2023-04-15T15:35:50.194Z,3.30
2023-04-15T15:38:55.517Z,2.85
2023-04-15T15:41:59.749Z,5.18
2023-04-15T15:45:05.721Z,5.55
2023-04-15T15:48:10.325Z,2.58
2023-04-15T15:51:17.347Z,5.50
2023-04-15T15:54:21.377Z,3.53
2023-04-15T15:57:24.370Z,6.75
2023-04-15T16:00:28.121Z,4.93
2023-04-15T16:03:31.305Z,3.78
2023-04-15T16:06:35.371Z,2.33
2023-04-15T16:09:41.570Z,3.53
2023-04-15T16:12:45.508Z,1.40
2023-04-15T16:15:50.929Z,1.88
2023-04-15T16:18:54.544Z,1.90
2023-04-15T16:21:58.253Z,2.53
2023-04-15T16:25:01.996Z,3.05
2023-04-15T16:28:14.821Z,2.83
2023-04-15T16:31:26.093Z,2.17
2023-04-15T16:34:30.203Z,1.67
2023-04-15T16:37:35.064Z,1.55
2023-04-15T16:40:38.960Z,2.75
2023-04-15T16:43:43.148Z,4.75
2023-04-15T16:46:46.271Z,1.00
2023-04-15T16:49:49.316Z,5.78
2023-04-15T16:52:53.603Z,2.75
2023-04-15T16:55:57.088Z,4.15
2023-04-15T16:59:00.270Z,3.45
2023-04-15T17:02:04.578Z,0.70
2023-04-15T17:05:09.244Z,1.60
2023-04-15T17:08:12.610Z,1.45
2023-04-15T17:11:16.191Z,2.33
2023-04-15T17:14:19.583Z,5.88
2023-04-15T17:17:23.712Z,1.65
2023-04-15T17:20:27.232Z,1.70
2023-04-15T17:23:30.566Z,2.08
2023-04-15T17:26:34.885Z,3.15
2023-04-15T17:29:37.971Z,2.05
2023-04-15T17:32:42.171Z,2.17
2023-04-15T17:35:45.637Z,8.10
2023-04-15T17:38:50.097Z,2.28
2023-04-15T17:41:53.230Z,8.20
2023-04-15T17:44:56.949Z,2.13
2023-04-15T17:48:04.033Z,3.92
2023-04-15T17:51:08.376Z,2.63
2023-04-15T17:54:11.605Z,2.03
2023-04-15T17:57:14.938Z,4.07
2023-04-15T18:00:18.781Z,1.63
2023-04-15T18:03:22.905Z,5.47
2023-04-15T18:06:27.801Z,2.08
2023-04-15T18:09:31.139Z,3.75
2023-04-15T18:12:34.965Z,2.88
2023-04-15T18:15:39.118Z,3.45
2023-04-15T18:18:42.663Z,2.30
2023-04-15T18:21:46.825Z,2.70
2023-04-15T18:24:52.615Z,3.00
2023-04-15T18:27:56.996Z,2.05
2023-04-15T18:31:00.345Z,3.03
2023-04-15T18:34:08.114Z,1.35
2023-04-15T18:37:11.678Z,2.80
2023-04-15T18:40:17.144Z,2.10
2023-04-15T18:43:20.555Z,3.55
2023-04-15T18:46:24.721Z,1.13
2023-04-15T18:49:28.006Z,5.03
2023-04-15T18:52:32.096Z,6.53
2023-04-15T18:55:36.424Z,6.20
2023-04-15T18:59:26.917Z,2.22
2023-04-15T19:02:04.173Z,1.85
2023-04-15T19:05:08.494Z,1.75
2023-04-15T19:08:11.789Z,3.72
2023-04-15T19:11:16.053Z,2.58
2023-04-15T19:14:19.125Z,2.05
2023-04-15T19:17:22.151Z,2.40
2023-04-15T19:20:25.217Z,1.85
2023-04-15T19:23:28.773Z,1.80
2023-04-15T19:26:32.086Z,1.23
2023-04-15T19:29:35.944Z,2.45
2023-04-15T19:32:39.817Z,1.83
2023-04-15T19:35:43.762Z,2.42
2023-04-15T19:38:46.808Z,4.97
2023-04-15T19:41:51.794Z,3.13
2023-04-15T19:44:56.492Z,6.38
2023-04-15T19:48:00.591Z,2.72
2023-04-15T19:51:03.948Z,1.08
2023-04-15T19:54:08.045Z,2.38
2023-04-15T19:57:11.370Z,2.83
2023-04-15T20:00:15.319Z,4.85
2023-04-15T20:03:19.494Z,1.25
2023-04-15T20:06:23.782Z,2.03
2023-04-15T20:09:27.162Z,3.60
2023-04-15T20:12:50.533Z,2.78
2023-04-15T20:15:54.599Z,4.55
2023-04-15T20:19:04.933Z,4.25
2023-04-15T20:22:08.766Z,1.35
2023-04-15T20:25:12.834Z,3.65
2023-04-15T20:28:18.594Z,3.30
2023-04-15T20:31:23.507Z,2.83
2023-04-15T20:34:27.329Z,1.75
2023-04-15T20:37:34.201Z,2.13
2023-04-15T20:40:39.432Z,1.23
2023-04-15T20:43:44.493Z,6.32
2023-04-15T20:46:48.305Z,2.97
2023-04-15T20:49:52.117Z,5.35
2023-04-15T20:52:55.727Z,4.25
2023-04-15T20:56:01.153Z,3.72
2023-04-15T20:59:05.322Z,4.65
2023-04-15T21:02:09.941Z,1.35
2023-04-15T21:05:13.425Z,4.53
2023-04-15T21:08:17.770Z,3.05
2023-04-15T21:11:40.613Z,4.90
2023-04-15T21:14:45.966Z,1.70
2023-04-15T21:17:49.367Z,1.08
2023-04-15T21:21:03.497Z,2.65
2023-04-15T21:24:08.312Z,3.63
2023-04-15T21:27:12.587Z,2.38
2023-04-15T21:30:16.321Z,4.20
2023-04-15T21:33:21.331Z,1.67
2023-04-15T21:36:25.262Z,2.42
2023-04-15T21:39:29.727Z,2.55
2023-04-15T21:42:33.027Z,2.15
2023-04-15T21:45:39.944Z,2.08
2023-04-15T21:48:43.452Z,6.32
2023-04-15T21:51:48.480Z,1.88
2023-04-15T21:54:52.261Z,1.95
2023-04-15T21:57:55.665Z,1.70
2023-04-15T22:01:00.819Z,3.00
2023-04-15T22:04:05.164Z,2.47
2023-04-15T22:07:08.528Z,4.32
2023-04-15T22:10:12.659Z,5.28
2023-04-15T22:13:16.446Z,1.85
2023-04-15T22:16:20.565Z,2.80
2023-04-15T22:19:24.044Z,2.22
2023-04-15T22:22:44.304Z,3.85
2023-04-15T22:25:48.809Z,1.52
2023-04-15T22:28:52.618Z,5.15
2023-04-15T22:31:56.482Z,2.13
2023-04-15T22:35:00.206Z,5.80
2023-04-15T22:38:04.574Z,2.80
2023-04-15T22:41:08.939Z,6.45
2023-04-15T22:44:12.485Z,1.83
2023-04-15T22:47:16.756Z,3.88
2023-04-15T22:50:20.285Z,5.97
2023-04-15T22:53:24.098Z,2.42
2023-04-15T22:56:27.913Z,2.53
2023-04-15T22:59:32.053Z,3.72
2023-04-15T23:02:36.195Z,5.90
2023-04-15T23:05:41.652Z,6.50
2023-04-15T23:08:48.650Z,2.33
2023-04-15T23:11:52.947Z,1.60
2023-04-15T23:14:56.660Z,2.60
2023-04-15T23:18:01.366Z,4.18
2023-04-15T23:21:05.325Z,3.78
2023-04-15T23:24:08.989Z,1.73
2023-04-15T23:27:12.580Z,7.78
2023-04-15T23:30:16.258Z,3.20
2023-04-15T23:33:19.920Z,4.22
2023-04-15T23:36:23.851Z,10.20
2023-04-15T23:39:27.227Z,6.75
2023-04-15T23:42:31.601Z,6.68
2023-04-15T23:45:34.896Z,11.75
2023-04-15T23:48:39.382Z,7.65
2023-04-15T23:51:42.983Z,5.85
2023-04-15T23:54:46.998Z,6.95
2023-04-15T23:57:50.381Z,9.25
